Time;durP1;ratioP1;P1;durP2;ratioP2;P2;SDS_P1;SDS_P2;PMS_P1;PMS_P2;Temp;Humidity;BMP_temperature;BMP_pressure;BME280_temperature;BME280_humidity;BME280_pressure;Samples;Min_cycle;Max_cycle;Signal;HPM_P1;HPM_P2
2022/07/03 00:01:47;;;;;;;;;;;;;;;16.13;57.82;101123.75;4957726;28;1199;-45
2022/07/03 00:04:12;;;;;;;;;;;;;;;16.14;57.77;101135.56;4959401;28;942;-49
2022/07/03 00:06:38;;;;;;;;;;;;;;;16.12;57.57;101129.50;4957368;28;897;-49
2022/07/03 00:09:03;;;;;;;;;;;;;;;17.28;58.37;101132.41;4957134;28;1189;-50
2022/07/03 00:11:29;;;;;;;;;;;;;;;17.15;59.08;101128.22;4957557;28;1926;-51
2022/07/03 00:13:54;;;;;;;;;;;;;;;16.76;59.22;101126.66;4960937;28;1038;-46
2022/07/03 00:16:20;;;;;;;;;;;;;;;16.59;58.82;101123.25;4960953;28;1010;-49
2022/07/03 00:18:45;;;;;;;;;;;;;;;16.49;58.68;101121.25;4960784;29;1086;-51
2022/07/03 00:21:11;;;;;;;;;;;;;;;16.42;58.30;101116.03;4961126;28;1153;-52
2022/07/03 00:23:40;;;;;;;;;;;;;;;16.40;57.90;101120.13;4960688;29;1075;-50
2022/07/03 00:26:06;;;;;;;;;;;;;;;16.36;57.86;101114.31;4960811;28;1019;-48
2022/07/03 00:28:32;;;;;;;;;;;;;;;16.31;57.84;101114.28;4960927;29;1011;-50
2022/07/03 00:30:57;;;;;;;;;;;;;;;16.24;57.58;101114.53;4960348;28;1902;-48
2022/07/03 00:33:22;;;;;;;;;;;;;;;16.19;57.56;101119.16;4961078;28;1145;-47
2022/07/03 00:35:48;;;;;;;;;;;;;;;16.19;57.69;101121.88;4939896;29;1094;-49
2022/07/03 00:38:14;;;;;;;;;;;;;;;16.16;57.38;101114.16;4943744;29;1086;-47
2022/07/03 00:40:39;;;;;;;;;;;;;;;16.11;57.58;101111.41;4943260;29;1201;-52
2022/07/03 00:43:05;;;;;;;;;;;;;;;16.13;57.61;101117.44;4960340;28;991;-47
2022/07/03 00:45:33;;;;;;;;;;;;;;;16.04;57.36;101111.59;4960687;29;1089;-50
2022/07/03 00:47:59;;;;;;;;;;;;;;;16.06;57.45;101123.97;4960912;28;975;-51
2022/07/03 00:50:25;;;;;;;;;;;;;;;16.77;58.52;101122.81;4961620;28;1910;-49
2022/07/03 00:52:51;;;;;;;;;;;;;;;17.34;58.77;101106.59;4960543;29;1113;-48
2022/07/03 00:55:16;;;;;;;;;;;;;;;16.72;59.40;101106.31;4943072;29;1133;-44
2022/07/03 00:57:46;;;;;;;;;;;;;;;16.54;59.11;101115.81;4960684;28;1002;-47
2022/07/03 01:00:12;;;;;;;;;;;;;;;16.43;58.56;101112.16;4960354;28;1225;-47
2022/07/03 01:02:40;;;;;;;;;;;;;;;16.36;58.57;101111.56;4960837;28;1070;-48
2022/07/03 01:05:05;;;;;;;;;;;;;;;16.33;58.09;101105.81;4962005;28;963;-47
2022/07/03 01:07:34;;;;;;;;;;;;;;;16.26;58.07;101114.25;4959886;29;1042;-47
2022/07/03 01:10:12;;;;;;;;;;;;;;;16.22;57.83;101115.88;4959826;28;1003;-46
2022/07/03 01:12:41;;;;;;;;;;;;;;;16.22;57.61;101113.13;4942634;29;1154;-47
2022/07/03 01:15:11;;;;;;;;;;;;;;;16.17;57.70;101104.84;4942836;29;1451;-45
2022/07/03 01:17:40;;;;;;;;;;;;;;;16.18;57.73;101110.06;4965894;28;1042;-48
2022/07/03 01:20:06;;;;;;;;;;;;;;;16.12;57.77;101113.03;4959348;29;999;-49
2022/07/03 01:22:37;;;;;;;;;;;;;;;16.15;58.24;101110.59;4964193;28;999;-47
2022/07/03 01:25:10;;;;;;;;;;;;;;;17.63;58.52;101111.59;4959999;29;1074;-50
2022/07/03 01:27:52;;;;;;;;;;;;;;;16.90;59.38;101105.06;4942659;29;1039;-45
2022/07/03 01:30:17;;;;;;;;;;;;;;;16.64;58.88;101115.06;4953749;28;1898;-49
2022/07/03 01:32:44;;;;;;;;;;;;;;;16.50;58.97;101100.16;4942039;28;1082;-48
2022/07/03 01:35:21;;;;;;;;;;;;;;;16.44;58.54;101102.03;4960003;29;1081;-52
2022/07/03 01:37:47;;;;;;;;;;;;;;;16.36;58.40;101099.78;4954739;28;1161;-48
2022/07/03 01:40:12;;;;;;;;;;;;;;;16.32;58.16;101095.91;4959364;29;1011;-47
2022/07/03 01:42:40;;;;;;;;;;;;;;;16.32;57.98;101095.91;4959785;28;987;-48
2022/07/03 01:45:05;;;;;;;;;;;;;;;16.24;58.09;101098.06;4942626;29;1137;-49
2022/07/03 01:47:31;;;;;;;;;;;;;;;16.25;57.88;101098.88;4942427;29;1015;-53
2022/07/03 01:49:56;;;;;;;;;;;;;;;16.18;57.77;101098.28;4959304;28;1050;-49
2022/07/03 01:52:22;;;;;;;;;;;;;;;16.17;57.57;101094.72;4941680;29;1991;-49
2022/07/03 01:54:47;;;;;;;;;;;;;;;16.15;57.59;101096.06;4959493;28;1023;-50
2022/07/03 01:57:13;;;;;;;;;;;;;;;16.13;57.84;101084.50;4959255;28;1163;-47
2022/07/03 01:59:38;;;;;;;;;;;;;;;16.10;57.60;101096.00;4960384;28;956;-50
2022/07/03 02:02:16;;;;;;;;;;;;;;;16.73;58.70;101098.88;4959039;28;1153;-50
2022/07/03 02:04:51;;;;;;;;;;;;;;;17.32;59.11;101089.56;4941820;29;1058;-48
2022/07/03 02:07:20;;;;;;;;;;;;;;;16.75;59.24;101094.78;4957067;28;833;-52
2022/07/03 02:09:49;;;;;;;;;;;;;;;16.55;58.99;101084.53;4953513;28;1077;-50
2022/07/03 02:12:14;;;;;;;;;;;;;;;16.48;58.91;101089.44;4953274;28;1918;-49
2022/07/03 02:14:40;;;;;;;;;;;;;;;16.46;58.35;101082.56;4941692;29;1011;-50
2022/07/03 02:17:05;;;;;;;;;;;;;;;16.38;58.22;101081.97;4965320;28;963;-45
2022/07/03 02:19:49;;;;;;;;;;;;;;;16.34;58.22;101086.31;4958757;28;983;-47
2022/07/03 02:22:14;;;;;;;;;;;;;;;16.30;57.98;101076.97;4957028;28;973;-46
2022/07/03 02:24:44;;;;;;;;;;;;;;;16.25;58.00;101085.97;4941131;29;1209;-47
2022/07/03 02:27:12;;;;;;;;;;;;;;;16.22;57.77;101083.75;4958527;28;1077;-48
2022/07/03 02:29:43;;;;;;;;;;;;;;;16.18;57.44;101092.78;4961520;28;1110;-48
2022/07/03 02:32:10;;;;;;;;;;;;;;;16.14;57.52;101089.72;4958510;28;1922;-46
2022/07/03 02:34:36;;;;;;;;;;;;;;;16.10;57.40;101087.78;4958069;28;1149;-50
2022/07/03 02:37:18;;;;;;;;;;;;;;;16.08;57.46;101083.38;4941255;29;892;-47
2022/07/03 02:39:50;;;;;;;;;;;;;;;17.57;58.44;101085.19;4958504;28;1129;-48
2022/07/03 02:42:24;;;;;;;;;;;;;;;16.96;59.48;101096.81;4958582;29;975;-52
2022/07/03 02:44:50;;;;;;;;;;;;;;;16.65;59.25;101094.75;4964442;28;998;-50
2022/07/03 02:47:34;;;;;;;;;;;;;;;16.56;58.70;101086.19;4958464;29;967;-46
2022/07/03 02:50:08;;;;;;;;;;;;;;;16.45;58.35;101089.94;4958745;28;1093;-46
2022/07/03 02:52:43;;;;;;;;;;;;;;;16.38;58.11;101092.94;4956737;29;1019;-48
2022/07/03 02:55:17;;;;;;;;;;;;;;;16.30;58.14;101098.06;4958056;28;1200;-48
2022/07/03 02:57:43;;;;;;;;;;;;;;;16.30;57.80;101101.66;4958391;28;1014;-50
2022/07/03 03:00:09;;;;;;;;;;;;;;;16.24;57.72;101116.41;4959932;28;1217;-49
2022/07/03 03:02:55;;;;;;;;;;;;;;;16.19;57.72;101106.25;4957858;28;876;-47
2022/07/03 03:05:20;;;;;;;;;;;;;;;16.17;57.62;101113.06;4958062;29;1184;-47
2022/07/03 03:07:55;;;;;;;;;;;;;;;16.17;57.54;101108.44;4958324;28;1161;-50
2022/07/03 03:10:21;;;;;;;;;;;;;;;16.11;57.60;101108.66;4943449;29;1977;-51
2022/07/03 03:12:47;;;;;;;;;;;;;;;16.07;57.63;101109.19;4959037;28;1165;-50
2022/07/03 03:15:13;;;;;;;;;;;;;;;16.53;58.69;101114.16;4957305;28;1474;-49
2022/07/03 03:17:42;;;;;;;;;;;;;;;17.45;58.66;101108.25;4958528;28;1216;-54
2022/07/03 03:20:08;;;;;;;;;;;;;;;16.78;59.58;101112.66;4939945;29;1229;-52
2022/07/03 03:22:45;;;;;;;;;;;;;;;16.55;58.96;101108.41;4958536;28;1125;-46
2022/07/03 03:25:10;;;;;;;;;;;;;;;16.48;58.80;101105.06;4958551;29;1019;-50
2022/07/03 03:27:36;;;;;;;;;;;;;;;16.41;58.39;101106.13;4940251;29;1212;-51
2022/07/03 03:30:01;;;;;;;;;;;;;;;16.34;58.14;101111.03;4958049;28;983;-49
2022/07/03 03:32:27;;;;;;;;;;;;;;;16.31;58.05;101106.03;4957897;28;1918;-49
2022/07/03 03:34:52;;;;;;;;;;;;;;;16.26;58.07;101108.78;4941062;29;984;-50
2022/07/03 03:37:18;;;;;;;;;;;;;;;16.23;57.87;101110.13;4957431;28;1038;-52
2022/07/03 03:39:43;;;;;;;;;;;;;;;16.23;57.69;101112.03;4940801;29;991;-48
2022/07/03 03:42:09;;;;;;;;;;;;;;;16.18;57.90;101104.56;4957401;28;1090;-51
2022/07/03 03:44:34;;;;;;;;;;;;;;;16.15;57.95;101104.28;4958190;28;1094;-50
2022/07/03 03:46:59;;;;;;;;;;;;;;;16.13;57.79;101112.78;4960174;28;1269;-52
2022/07/03 03:49:25;;;;;;;;;;;;;;;16.25;58.53;101109.84;4963509;28;1149;-52
2022/07/03 03:51:50;;;;;;;;;;;;;;;16.19;58.44;101110.91;4956686;29;1925;-58
2022/07/03 03:54:16;;;;;;;;;;;;;;;16.24;58.74;101110.94;4957936;28;921;-59
2022/07/03 03:56:41;;;;;;;;;;;;;;;16.23;58.84;101117.53;4961846;28;1010;-50
2022/07/03 03:59:07;;;;;;;;;;;;;;;16.29;58.83;101121.97;4961739;28;1050;-57
2022/07/03 04:01:33;;;;;;;;;;;;;;;16.34;59.18;101122.00;4965186;28;1096;-56
2022/07/03 04:03:59;;;;;;;;;;;;;;;16.36;59.36;101119.81;4962853;28;1125;-58
2022/07/03 04:06:24;;;;;;;;;;;;;;;16.35;59.52;101109.09;4960845;29;918;-58
2022/07/03 04:08:50;;;;;;;;;;;;;;;16.37;59.43;101113.22;4960359;28;2521;-55
2022/07/03 04:11:15;;;;;;;;;;;;;;;16.39;59.48;101116.53;4962738;28;2039;-63
2022/07/03 04:13:41;;;;;;;;;;;;;;;16.36;59.33;101113.50;4956943;29;2094;-55
2022/07/03 04:16:06;;;;;;;;;;;;;;;16.38;59.10;101120.38;4960076;28;1742;-57
2022/07/03 04:18:32;;;;;;;;;;;;;;;16.40;59.24;101118.19;4953879;28;1859;-56
2022/07/03 04:20:57;;;;;;;;;;;;;;;16.40;58.94;101117.38;4957851;28;1904;-56
2022/07/03 04:23:22;;;;;;;;;;;;;;;16.40;58.96;101112.69;4960862;28;2103;-55
2022/07/03 04:25:48;;;;;;;;;;;;;;;16.43;59.16;101114.09;4955063;28;2415;-54
2022/07/03 04:28:13;;;;;;;;;;;;;;;16.45;58.76;101114.63;4961005;28;1054;-57
2022/07/03 04:30:39;;;;;;;;;;;;;;;16.49;58.82;101120.44;4966500;28;1980;-53
2022/07/03 04:33:04;;;;;;;;;;;;;;;16.47;58.93;101126.19;4966816;28;1240;-58
2022/07/03 04:35:30;;;;;;;;;;;;;;;16.43;58.86;101123.16;4959235;29;926;-56
2022/07/03 04:37:55;;;;;;;;;;;;;;;16.45;58.81;101122.06;4960589;28;1129;-57
2022/07/03 04:40:21;;;;;;;;;;;;;;;16.44;58.76;101121.25;4960847;28;1101;-55
2022/07/03 04:42:46;;;;;;;;;;;;;;;16.43;59.04;101127.81;4960799;28;1148;-57
2022/07/03 04:48:00;;;;;;;;;;;;;;;16.34;58.87;101130.22;5130895;23;7081;-58
2022/07/03 04:50:26;;;;;;;;;;;;;;;16.32;58.61;101131.59;4967284;28;2183;-57
2022/07/03 04:52:51;;;;;;;;;;;;;;;16.28;58.22;101135.94;4967932;28;2182;-53
2022/07/03 04:55:16;;;;;;;;;;;;;;;16.26;58.43;101127.97;4969634;28;1783;-53
2022/07/03 04:57:42;;;;;;;;;;;;;;;16.23;57.98;101125.75;4962265;28;2222;-54
2022/07/03 05:00:08;;;;;;;;;;;;;;;16.19;58.12;101121.88;4966953;28;1969;-58
2022/07/03 05:02:33;;;;;;;;;;;;;;;16.16;58.29;101128.72;4961244;28;1847;-56
2022/07/03 05:04:58;;;;;;;;;;;;;;;16.14;57.95;101133.63;4961629;28;1119;-55
2022/07/03 05:07:24;;;;;;;;;;;;;;;16.15;58.28;101126.25;4960213;28;1452;-51
2022/07/03 05:09:49;;;;;;;;;;;;;;;16.14;58.07;101125.41;4960247;29;1161;-57
2022/07/03 05:12:15;;;;;;;;;;;;;;;16.12;58.09;101129.50;4962178;28;1985;-51
2022/07/03 05:14:40;;;;;;;;;;;;;;;16.12;58.04;101127.59;4954946;29;971;-52
2022/07/03 05:17:06;;;;;;;;;;;;;;;16.08;58.07;101132.75;4960144;29;1181;-52
2022/07/03 05:19:31;;;;;;;;;;;;;;;16.07;58.00;101130.28;4959674;28;980;-53
2022/07/03 05:21:57;;;;;;;;;;;;;;;16.66;59.32;101139.50;4962322;28;1264;-53
2022/07/03 05:24:23;;;;;;;;;;;;;;;17.36;59.94;101133.81;4960086;28;1007;-54
2022/07/03 05:26:49;;;;;;;;;;;;;;;16.78;60.11;101134.63;4959643;29;958;-53
2022/07/03 05:29:14;;;;;;;;;;;;;;;16.59;59.86;101140.56;4960873;28;1010;-52
2022/07/03 05:31:40;;;;;;;;;;;;;;;16.52;59.20;101139.97;4961190;28;2518;-57
2022/07/03 05:34:05;;;;;;;;;;;;;;;16.48;58.76;101138.00;4962635;28;1003;-47
2022/07/03 05:36:31;;;;;;;;;;;;;;;16.41;58.55;101139.06;4956651;28;1401;-55
2022/07/03 05:41:40;;;;;;;;;;;;;;;16.38;58.10;101136.84;4953741;29;1007;-52
2022/07/03 05:44:05;;;;;;;;;;;;;;;16.33;58.32;101139.56;4960391;28;1130;-55
2022/07/03 05:46:31;;;;;;;;;;;;;;;16.31;58.03;101147.19;4959142;28;1183;-48
2022/07/03 05:48:56;;;;;;;;;;;;;;;16.28;58.13;101142.25;4958404;28;1206;-50
2022/07/03 05:51:22;;;;;;;;;;;;;;;16.25;57.96;101146.34;4959156;29;1918;-54
2022/07/03 05:53:47;;;;;;;;;;;;;;;16.26;58.01;101147.19;4959245;29;1086;-56
2022/07/03 05:56:13;;;;;;;;;;;;;;;17.67;55.13;101145.72;4964668;28;956;-53
2022/07/03 05:58:38;;;;;;;;;;;;;;;16.72;55.59;101155.75;4963862;28;1204;-53
2022/07/03 06:01:04;;;;;;;;;;;;;;;16.50;54.71;101155.03;4962041;28;1097;-54
2022/07/03 06:03:29;;;;;;;;;;;;;;;16.37;53.72;101150.84;4960513;28;2521;-49
2022/07/03 06:05:54;;;;;;;;;;;;;;;17.40;55.28;101157.75;4965314;28;1308;-51
2022/07/03 06:08:20;;;;;;;;;;;;;;;16.85;54.90;101150.88;4959025;28;1086;-56
2022/07/03 06:10:45;;;;;;;;;;;;;;;16.64;53.83;101164.47;4958566;28;1985;-55
2022/07/03 06:13:11;;;;;;;;;;;;;;;16.55;52.83;101152.31;4959309;28;971;-56
2022/07/03 06:15:36;;;;;;;;;;;;;;;16.47;52.23;101161.06;4955880;28;1241;-50
2022/07/03 06:18:01;;;;;;;;;;;;;;;16.43;51.96;101161.56;4955279;28;2780;-54
2022/07/03 06:20:27;;;;;;;;;;;;;;;16.48;51.30;101159.97;4970333;28;1197;-52
2022/07/03 06:22:52;;;;;;;;;;;;;;;16.37;51.39;101159.06;4973456;28;1259;-49
2022/07/03 06:25:18;;;;;;;;;;;;;;;16.38;51.34;101158.81;4972347;28;1363;-51
2022/07/03 06:27:43;;;;;;;;;;;;;;;17.21;53.34;101159.31;4955167;28;1208;-49
2022/07/03 06:30:09;;;;;;;;;;;;;;;16.79;52.87;101165.66;4964957;28;1323;-52
2022/07/03 06:32:34;;;;;;;;;;;;;;;16.63;52.21;101154.56;4954062;28;2743;-51
2022/07/03 06:35:00;;;;;;;;;;;;;;;16.66;51.45;101156.81;4960785;28;1207;-54
2022/07/03 06:37:25;;;;;;;;;;;;;;;16.56;51.14;101164.97;4962008;28;1287;-52
2022/07/03 06:39:50;;;;;;;;;;;;;;;16.60;50.34;101168.84;4971721;28;1413;-48
2022/07/03 06:42:16;;;;;;;;;;;;;;;16.53;50.15;101160.81;4952903;28;1417;-50
2022/07/03 06:44:45;;;;;;;;;;;;;;;16.46;50.37;101160.22;4951744;28;1630;-52
2022/07/03 06:47:11;;;;;;;;;;;;;;;16.56;49.78;101160.31;4975509;28;1094;-46
2022/07/03 06:49:36;;;;;;;;;;;;;;;17.42;51.27;101171.22;4971970;28;1068;-51
2022/07/03 06:52:02;;;;;;;;;;;;;;;17.13;52.24;101168.09;4972734;28;1915;-46
2022/07/03 06:54:27;;;;;;;;;;;;;;;16.90;51.69;101170.13;4969271;28;1216;-48
2022/07/03 06:56:53;;;;;;;;;;;;;;;16.79;51.18;101176.63;4965487;28;1219;-52
2022/07/03 06:59:18;;;;;;;;;;;;;;;16.73;50.51;101173.03;4972765;28;1216;-52
2022/07/03 07:01:43;;;;;;;;;;;;;;;16.76;50.29;101167.84;4963106;28;2329;-48
2022/07/03 07:04:09;;;;;;;;;;;;;;;16.64;50.08;101169.97;4959118;28;1090;-48
2022/07/03 07:06:34;;;;;;;;;;;;;;;16.63;49.85;101171.03;4960727;28;1090;-51
2022/07/03 07:09:00;;;;;;;;;;;;;;;16.70;49.58;101168.88;4962586;28;962;-51
2022/07/03 07:11:25;;;;;;;;;;;;;;;16.73;49.93;101175.78;4960633;28;1907;-53
2022/07/03 07:13:51;;;;;;;;;;;;;;;16.68;49.79;101162.84;4957391;28;1351;-53
2022/07/03 07:16:16;;;;;;;;;;;;;;;16.71;49.35;101169.75;4960230;28;1062;-49
2022/07/03 07:18:42;;;;;;;;;;;;;;;16.63;49.28;101159.25;4954534;28;1282;-48
2022/07/03 07:21:10;;;;;;;;;;;;;;;16.60;49.43;101160.59;4956336;28;1154;-50
2022/07/03 07:23:36;;;;;;;;;;;;;;;16.66;49.00;101156.81;4958051;29;1161;-52
2022/07/03 07:26:01;;;;;;;;;;;;;;;16.71;48.73;101167.81;4958016;29;1030;-53
2022/07/03 07:28:26;;;;;;;;;;;;;;;16.58;49.21;101160.06;4957571;28;1042;-52
2022/07/03 07:30:56;;;;;;;;;;;;;;;16.64;49.27;101166.41;4957751;29;1907;-52
2022/07/03 07:33:21;;;;;;;;;;;;;;;16.69;49.12;101163.66;4957316;28;2672;-52
2022/07/03 07:35:47;;;;;;;;;;;;;;;16.63;49.12;101164.75;4962220;28;1016;-57
2022/07/03 07:38:12;;;;;;;;;;;;;;;16.68;48.76;101167.53;4956235;28;980;-54
2022/07/03 07:40:38;;;;;;;;;;;;;;;16.64;48.49;101167.22;4962742;28;1276;-47
2022/07/03 07:43:03;;;;;;;;;;;;;;;16.60;48.67;101164.16;4944277;28;1225;-56
2022/07/03 07:45:29;;;;;;;;;;;;;;;16.88;49.58;101175.06;4956627;28;1211;-57
2022/07/03 07:47:54;;;;;;;;;;;;;;;17.10;50.82;101178.50;4958625;28;864;-55
2022/07/03 07:50:19;;;;;;;;;;;;;;;16.93;50.38;101175.94;4958542;28;1906;-58
2022/07/03 07:52:45;;;;;;;;;;;;;;;16.77;50.23;101183.25;4956937;28;1097;-54
2022/07/03 07:55:10;;;;;;;;;;;;;;;16.85;49.45;101187.41;4961123;28;976;-56
2022/07/03 07:57:36;;;;;;;;;;;;;;;16.77;49.44;101183.25;4958596;28;1011;-57
2022/07/03 08:00:28;;;;;;;;;;;;;;;16.75;49.18;101190.91;4958952;28;905;-57
2022/07/03 08:05:37;;;;;;;;;;;;;;;16.81;48.67;101185.44;4959356;28;1242;-58
2022/07/03 08:08:13;;;;;;;;;;;;;;;16.68;48.93;101184.81;4958044;28;1058;-59
2022/07/03 08:10:44;;;;;;;;;;;;;;;16.72;48.75;101188.69;4966794;28;1983;-59
2022/07/03 08:13:09;;;;;;;;;;;;;;;16.75;48.82;101188.16;4963613;28;1106;-57
2022/07/03 08:15:35;;;;;;;;;;;;;;;16.68;48.67;101189.50;4959233;28;1078;-57
2022/07/03 08:18:00;;;;;;;;;;;;;;;16.70;48.61;101192.78;4957515;29;995;-54
2022/07/03 08:20:26;;;;;;;;;;;;;;;16.67;48.56;101191.41;4957537;29;1055;-55
2022/07/03 08:22:51;;;;;;;;;;;;;;;16.60;48.74;101188.06;4957195;29;1169;-57
2022/07/03 08:25:17;;;;;;;;;;;;;;;16.65;48.58;101190.00;4957597;29;1046;-58
2022/07/03 08:27:42;;;;;;;;;;;;;;;16.65;48.75;101188.09;4957561;28;1130;-61
2022/07/03 08:30:08;;;;;;;;;;;;;;;16.68;48.33;101195.81;4957069;28;837;-60
2022/07/03 08:32:33;;;;;;;;;;;;;;;16.64;48.41;101194.66;4958156;28;2367;-60
2022/07/03 08:34:59;;;;;;;;;;;;;;;16.68;48.68;101189.50;4964875;28;1086;-61
2022/07/03 08:37:25;;;;;;;;;;;;;;;16.65;48.47;101193.59;4961375;28;1355;-61
2022/07/03 08:39:50;;;;;;;;;;;;;;;16.58;48.74;101190.25;4959734;29;1217;-57
2022/07/03 08:42:16;;;;;;;;;;;;;;;16.62;48.58;101191.38;4957946;28;1027;-58
2022/07/03 08:44:42;;;;;;;;;;;;;;;16.65;48.43;101182.59;4947393;29;1011;-59
2022/07/03 08:47:08;;;;;;;;;;;;;;;16.68;48.51;101184.81;4946085;28;1180;-60
2022/07/03 08:49:34;;;;;;;;;;;;;;;16.63;48.62;101190.25;4962891;28;1034;-56
2022/07/03 08:52:00;;;;;;;;;;;;;;;16.67;48.42;101196.88;4960397;28;1910;-50
2022/07/03 08:54:25;;;;;;;;;;;;;;;16.65;48.31;101190.84;4964285;28;1015;-52
2022/07/03 08:56:50;;;;;;;;;;;;;;;16.67;48.42;101188.66;4960701;29;1019;-57
2022/07/03 08:59:16;;;;;;;;;;;;;;;16.69;48.47;101199.38;4959843;29;1023;-55
2022/07/03 09:01:43;;;;;;;;;;;;;;;16.68;48.66;101190.31;4958135;28;2428;-58
2022/07/03 09:04:13;;;;;;;;;;;;;;;16.62;48.55;101199.63;4960088;28;1046;-55
2022/07/03 09:06:39;;;;;;;;;;;;;;;16.70;48.43;101187.28;4955403;28;1248;-56
2022/07/03 09:09:04;;;;;;;;;;;;;;;16.68;48.37;101189.50;4963542;28;1198;-59
2022/07/03 09:11:30;;;;;;;;;;;;;;;16.69;48.35;101200.22;4945574;29;1982;-58
2022/07/03 09:13:55;;;;;;;;;;;;;;;16.73;48.32;101195.84;4958678;28;1043;-56
2022/07/03 09:16:21;;;;;;;;;;;;;;;16.65;48.52;101193.59;4956088;28;1070;-59
2022/07/03 09:18:46;;;;;;;;;;;;;;;16.69;48.37;101200.22;4965343;28;995;-60
2022/07/03 09:21:12;;;;;;;;;;;;;;;16.66;48.47;101192.50;4959724;28;1086;-54
2022/07/03 09:23:38;;;;;;;;;;;;;;;16.60;48.35;101199.84;4961967;28;1003;-57
2022/07/03 09:26:03;;;;;;;;;;;;;;;16.70;48.39;101210.09;4948299;29;1047;-55
2022/07/03 09:28:54;;;;;;;;;;;;;;;16.61;48.30;101195.22;4960082;28;1007;-53
2022/07/03 09:31:21;;;;;;;;;;;;;;;17.14;49.06;101191.69;4950007;29;1906;-57
2022/07/03 09:33:55;;;;;;;;;;;;;;;17.15;50.17;101187.84;4955643;29;2832;-58
2022/07/03 09:36:21;;;;;;;;;;;;;;;16.95;49.84;101191.34;4954708;29;876;-57
2022/07/03 09:38:46;;;;;;;;;;;;;;;16.87;49.59;101193.47;4959533;29;1094;-58
2022/07/03 09:41:12;;;;;;;;;;;;;;;16.89;49.05;101190.47;4946517;29;1182;-57
2022/07/03 09:43:40;;;;;;;;;;;;;;;16.87;49.06;101198.97;4959645;28;1093;-63
2022/07/03 09:46:06;;;;;;;;;;;;;;;16.85;48.81;101198.38;4945293;29;1106;-57
2022/07/03 09:48:32;;;;;;;;;;;;;;;16.77;48.81;101191.47;4959039;29;1126;-56
2022/07/03 09:51:10;;;;;;;;;;;;;;;16.80;48.52;101195.59;4959432;29;1959;-57
2022/07/03 09:53:44;;;;;;;;;;;;;;;16.80;48.43;101192.03;4954208;29;1031;-60
2022/07/03 09:56:09;;;;;;;;;;;;;;;16.83;48.36;101197.84;4959702;28;1082;-55
2022/07/03 09:58:35;;;;;;;;;;;;;;;16.77;48.40;101186.00;4962319;28;1081;-57
2022/07/03 10:01:19;;;;;;;;;;;;;;;16.78;48.44;101195.03;4958828;29;923;-57
2022/07/03 10:03:44;;;;;;;;;;;;;;;16.82;48.12;101185.19;4958644;28;2530;-57
2022/07/03 10:06:10;;;;;;;;;;;;;;;16.74;48.36;101181.00;4941819;29;1070;-58
2022/07/03 10:08:35;;;;;;;;;;;;;;;16.80;47.89;101179.13;4958851;29;1117;-56
2022/07/03 10:11:01;;;;;;;;;;;;;;;16.79;47.90;101193.13;4960592;28;1910;-57
2022/07/03 10:13:26;;;;;;;;;;;;;;;16.75;48.34;101190.91;4958934;29;1051;-56
2022/07/03 10:15:51;;;;;;;;;;;;;;;16.70;48.16;101177.13;4942072;29;1177;-58
2022/07/03 10:18:17;;;;;;;;;;;;;;;16.81;48.25;101188.19;4959520;28;1255;-54
2022/07/03 10:20:42;;;;;;;;;;;;;;;16.79;47.91;101187.63;4940496;28;1094;-58
2022/07/03 10:23:08;;;;;;;;;;;;;;;16.71;48.29;101183.47;4958661;29;1058;-56
2022/07/03 10:25:33;;;;;;;;;;;;;;;16.80;48.14;101170.06;4941867;29;1388;-57
2022/07/03 10:27:59;;;;;;;;;;;;;;;16.80;48.08;101164.56;4941386;29;1162;-58
2022/07/03 10:30:24;;;;;;;;;;;;;;;16.81;47.72;101172.53;4958545;29;1106;-58
2022/07/03 10:32:54;;;;;;;;;;;;;;;16.74;48.22;101166.47;4955439;29;2465;-55
2022/07/03 10:35:26;;;;;;;;;;;;;;;16.72;47.94;101155.75;4958501;29;1023;-56
2022/07/03 10:38:18;;;;;;;;;;;;;;;16.80;48.01;101159.06;4958849;29;1216;-56
2022/07/03 10:46:16;;;;;;;;;;;;;;;16.75;47.97;101149.72;4946709;28;967;-58
2022/07/03 10:49:00;;;;;;;;;;;;;;;16.80;47.80;101153.56;4962303;28;1127;-58
2022/07/03 10:51:26;;;;;;;;;;;;;;;16.73;47.81;101156.56;4972101;28;1910;-52
2022/07/03 10:54:10;;;;;;;;;;;;;;;16.69;47.96;101142.53;4959187;28;1051;-53
2022/07/03 10:56:55;;;;;;;;;;;;;;;16.73;47.92;101160.16;4945879;28;1162;-56
2022/07/03 10:59:20;;;;;;;;;;;;;;;16.80;47.55;101153.56;4965602;28;1023;-56
2022/07/03 11:01:45;;;;;;;;;;;;;;;16.78;47.70;101145.59;4959128;28;2586;-57
2022/07/03 11:04:11;;;;;;;;;;;;;;;16.72;47.66;101143.94;4955951;28;1097;-58
2022/07/03 11:06:42;;;;;;;;;;;;;;;16.84;48.03;101151.97;4958240;28;1353;-55
2022/07/03 11:09:11;;;;;;;;;;;;;;;16.75;47.76;101135.97;4954159;29;1090;-53
2022/07/03 11:11:55;;;;;;;;;;;;;;;16.77;47.95;101139.31;4957874;29;1910;-50
2022/07/03 11:14:21;;;;;;;;;;;;;;;16.74;47.85;101139.81;4958494;29;1007;-52
2022/07/03 11:16:47;;;;;;;;;;;;;;;16.79;47.71;101138.19;4957986;29;963;-55
2022/07/03 11:19:12;;;;;;;;;;;;;;;16.79;47.60;101140.94;4957743;28;1514;-54
2022/07/03 11:21:40;;;;;;;;;;;;;;;16.78;47.42;101142.88;4969159;28;1357;-55
2022/07/03 11:24:24;;;;;;;;;;;;;;;16.68;47.91;101129.91;4950716;29;1343;-55
2022/07/03 11:27:13;;;;;;;;;;;;;;;16.80;47.59;101131.59;4956455;28;1098;-58
2022/07/03 11:29:39;;;;;;;;;;;;;;;16.83;47.33;101129.16;4953570;29;1203;-59
2022/07/03 11:32:37;;;;;;;;;;;;;;;16.76;47.54;101125.84;4943234;29;2483;-53
2022/07/03 11:35:02;;;;;;;;;;;;;;;16.79;47.50;101128.03;4935246;29;1147;-53
2022/07/03 11:37:28;;;;;;;;;;;;;;;16.74;47.65;101126.06;4957946;28;956;-55
2022/07/03 11:39:54;;;;;;;;;;;;;;;16.75;47.55;101125.00;4957917;29;979;-53
2022/07/03 11:42:19;;;;;;;;;;;;;;;16.78;47.48;101123.63;4940551;29;1279;-57
2022/07/03 11:44:45;;;;;;;;;;;;;;;16.72;47.66;101125.53;4957762;28;1432;-56
2022/07/03 11:47:10;;;;;;;;;;;;;;;16.75;47.40;101119.50;4940425;29;1183;-58
2022/07/03 11:49:38;;;;;;;;;;;;;;;16.80;47.47;101129.69;4959627;28;1055;-53
2022/07/03 11:52:04;;;;;;;;;;;;;;;16.77;47.46;101120.06;4960906;28;1964;-57
2022/07/03 11:54:48;;;;;;;;;;;;;;;16.75;47.23;101121.44;4961076;28;1272;-54
2022/07/03 11:57:14;;;;;;;;;;;;;;;16.77;47.53;101117.34;4940639;28;1027;-57
2022/07/03 11:59:39;;;;;;;;;;;;;;;16.79;47.54;101113.47;4941137;29;1164;-57
2022/07/03 12:02:05;;;;;;;;;;;;;;;16.77;47.65;101127.47;4953818;29;2369;-57
2022/07/03 12:04:30;;;;;;;;;;;;;;;16.78;47.43;101123.63;4956706;29;1101;-57
2022/07/03 12:06:56;;;;;;;;;;;;;;;16.82;47.47;101121.19;4957575;28;1023;-57
2022/07/03 12:09:26;;;;;;;;;;;;;;;16.78;47.57;101126.38;4960282;28;1225;-53
2022/07/03 12:11:57;;;;;;;;;;;;;;;16.87;47.48;101132.19;4961041;28;1906;-55
2022/07/03 12:14:35;;;;;;;;;;;;;;;16.92;47.62;101124.03;4963066;28;1077;-54
2022/07/03 12:17:01;;;;;;;;;;;;;;;17.07;47.56;101126.03;4957001;29;975;-55
2022/07/03 12:19:26;;;;;;;;;;;;;;;18.13;48.06;101110.03;4961157;29;944;-57
2022/07/03 12:21:52;;;;;;;;;;;;;;;17.52;49.30;101121.75;4946601;29;1197;-55
2022/07/03 12:24:17;;;;;;;;;;;;;;;17.40;48.71;101116.50;4960843;29;1094;-56
2022/07/03 12:26:43;;;;;;;;;;;;;;;17.38;48.60;101115.94;4960823;29;1070;-54
2022/07/03 12:29:09;;;;;;;;;;;;;;;17.35;48.52;101112.91;4960809;29;1071;-57
2022/07/03 12:31:34;;;;;;;;;;;;;;;17.22;48.29;101095.84;4962500;28;1909;-54
2022/07/03 12:34:00;;;;;;;;;;;;;;;17.28;48.19;101107.69;4959769;28;2856;-57
2022/07/03 12:36:25;;;;;;;;;;;;;;;17.25;47.71;101113.69;4943565;29;1023;-55
2022/07/03 12:38:51;;;;;;;;;;;;;;;17.22;47.66;101100.50;4960815;29;1146;-52
2022/07/03 12:41:17;;;;;;;;;;;;;;;17.22;47.67;101114.25;4961261;29;1090;-52
2022/07/03 12:43:44;;;;;;;;;;;;;;;17.16;47.53;101109.84;4960820;29;963;-51
2022/07/03 12:46:28;;;;;;;;;;;;;;;17.12;47.69;101116.97;4960519;28;1015;-52
2022/07/03 12:48:54;;;;;;;;;;;;;;;17.12;47.45;101101.28;4959992;29;1032;-57
2022/07/03 12:51:39;;;;;;;;;;;;;;;17.17;47.19;101108.75;4961015;29;1942;-55
2022/07/03 12:54:04;;;;;;;;;;;;;;;17.07;47.50;101107.59;4964177;28;1192;-53
2022/07/03 12:56:30;;;;;;;;;;;;;;;17.05;47.31;101095.22;4973112;28;1288;-52
2022/07/03 13:01:39;;;;;;;;;;;;;;;17.09;47.22;101097.16;4960405;28;2510;-52
2022/07/03 13:04:06;;;;;;;;;;;;;;;16.98;47.37;101103.69;4955945;28;1046;-53
2022/07/03 13:06:31;;;;;;;;;;;;;;;18.11;47.76;101101.19;4960122;29;1007;-53